Time;durP1;ratioP1;P1;durP2;ratioP2;P2;SDS_P1;SDS_P2;PMS_P1;PMS_P2;Temp;Humidity;BMP_temperature;BMP_pressure;BME280_temperature;BME280_humidity;BME280_pressure;Samples;Min_cycle;Max_cycle;Signal;HPM_P1;HPM_P2
2021/01/10 00:01:59;;;;;;;;;;;;;;;;;;5053159;28;20352;-60
2021/01/10 00:04:25;;;;;;;;;;;;;;;;;;5052913;28;19980;-60
2021/01/10 00:06:51;;;;;;;;;;;;;;;;;;5052950;28;19929;-60
2021/01/10 00:09:17;;;;;;;;;;;;;;;;;;5052888;28;19924;-59
2021/01/10 00:11:43;;;;;;;;;;;;;;;;;;5052881;28;20210;-60
2021/01/10 00:14:09;;;;;;;;;;;;;;;;;;5052801;28;19971;-60
2021/01/10 00:16:35;;;;;;;;;;;;;;;;;;5053043;28;20413;-60
2021/01/10 00:19:01;;;;;;;;;;;;;;;;;;5056805;28;19980;-59
2021/01/10 00:21:27;;;;;;;;;;;;;;;;;;5056698;28;20381;-60
2021/01/10 00:23:53;;;;;;;;;;;;;;;;;;5056576;28;20022;-60
2021/01/10 00:26:19;;;;;;;;;;;;;;;;;;5056833;28;19931;-60
2021/01/10 00:28:45;;;;;;;;;;;;;;;;;;5056321;28;20420;-60
2021/01/10 00:31:11;;;;;;;;;;;;;;;;;;5056431;28;20016;-60
2021/01/10 00:33:37;;;;;;;;;;;;;;;;;;5056535;28;20000;-60
2021/01/10 00:36:03;;;;;;;;;;;;;;;;;;5056553;28;20044;-59
2021/01/10 00:38:29;;;;;;;;;;;;;;;;;;5056247;28;19924;-60
2021/01/10 00:40:55;;;;;;;;;;;;;;;;;;5055760;28;19975;-60
2021/01/10 00:43:21;;;;;;;;;;;;;;;;;;5056132;28;19933;-58
2021/01/10 00:45:47;;;;;;;;;;;;;;;;;;5055474;28;19931;-60
2021/01/10 00:48:13;;;;;;;;;;;;;;;;;;5056123;28;20304;-60
2021/01/10 00:50:39;;;;;;;;;;;;;;;;;;5055969;28;19962;-60
2021/01/10 00:53:05;;;;;;;;;;;;;;;;;;5056150;28;20444;-56
2021/01/10 00:55:32;;;;;;;;;;;;;;;;;;5056285;28;19948;-60
2021/01/10 00:57:58;;;;;;;;;;;;;;;;;;5055978;28;19928;-60
2021/01/10 01:00:24;;;;;;;;;;;;;;;;;;5056019;28;19934;-57
2021/01/10 01:02:51;;;;;;;;;;;;;;;;;;5055890;28;20288;-60
2021/01/10 01:05:17;;;;;;;;;;;;;;;;;;5055828;28;19990;-58
2021/01/10 01:07:42;;;;;;;;;;;;;;;;;;5055910;28;19927;-60
2021/01/10 01:10:08;;;;;;;;;;;;;;;;;;5055856;28;19925;-59
2021/01/10 01:12:34;;;;;;;;;;;;;;;;;;5055657;28;19945;-60
2021/01/10 01:15:00;;;;;;;;;;;;;;;;;;5055492;28;19923;-60
2021/01/10 01:17:26;;;;;;;;;;;;;;;;;;5054330;28;19931;-60
2021/01/10 01:19:52;;;;;;;;;;;;;;;;;;5055868;28;19962;-59
2021/01/10 01:22:18;;;;;;;;;;;;;;;;;;5055546;28;19975;-60
2021/01/10 01:24:44;;;;;;;;;;;;;;;;;;5055403;28;19939;-59
2021/01/10 01:27:10;;;;;;;;;;;;;;;;;;5055655;28;19931;-58
2021/01/10 01:29:36;;;;;;;;;;;;;;;;;;5054106;28;20008;-59
2021/01/10 01:32:02;;;;;;;;;;;;;;;;;;5055379;28;20357;-58
2021/01/10 01:34:28;;;;;;;;;;;;;;;;;;5055547;28;19925;-60
2021/01/10 01:36:54;;;;;;;;;;;;;;;;;;5055226;28;19956;-60
2021/01/10 01:39:20;;;;;;;;;;;;;;;;;;5055235;28;19920;-60
2021/01/10 01:41:46;;;;;;;;;;;;;;;;;;5055112;28;20019;-60
2021/01/10 01:44:12;;;;;;;;;;;;;;;;;;5055392;28;19976;-54
2021/01/10 01:46:38;;;;;;;;;;;;;;;;;;5055291;28;20372;-60
2021/01/10 01:49:04;;;;;;;;;;;;;;;;;;5054942;28;19984;-60
2021/01/10 01:51:30;;;;;;;;;;;;;;;;;;5053760;28;19925;-59
2021/01/10 01:53:56;;;;;;;;;;;;;;;;;;5054923;28;19928;-59
2021/01/10 01:56:22;;;;;;;;;;;;;;;;;;5054747;28;19961;-60
2021/01/10 01:58:48;;;;;;;;;;;;;;;;;;5054754;28;20014;-60
2021/01/10 02:01:14;;;;;;;;;;;;;;;;;;5054744;28;19925;-59
2021/01/10 02:03:40;;;;;;;;;;;;;;;;;;5055090;28;20342;-60
2021/01/10 02:06:06;;;;;;;;;;;;;;;;;;5054651;28;19944;-60
2021/01/10 02:08:32;;;;;;;;;;;;;;;;;;5054631;28;19925;-60
2021/01/10 02:10:58;;;;;;;;;;;;;;;;;;5054439;28;19925;-60
2021/01/10 02:13:24;;;;;;;;;;;;;;;;;;5054524;28;20020;-60
2021/01/10 02:15:50;;;;;;;;;;;;;;;;;;5054423;28;20047;-60
2021/01/10 02:18:16;;;;;;;;;;;;;;;;;;5054365;28;20405;-60
2021/01/10 02:20:42;;;;;;;;;;;;;;;;;;5054371;28;19936;-59
2021/01/10 02:23:08;;;;;;;;;;;;;;;;;;5054297;28;19909;-59
2021/01/10 02:25:34;;;;;;;;;;;;;;;;;;5054266;28;20015;-60
2021/01/10 02:28:00;;;;;;;;;;;;;;;;;;5054134;28;19953;-60
2021/01/10 02:30:26;;;;;;;;;;;;;;;;;;5054114;28;19956;-60
2021/01/10 02:32:52;;;;;;;;;;;;;;;;;;5054360;28;19923;-60
2021/01/10 02:35:18;;;;;;;;;;;;;;;;;;5053994;28;20046;-54
2021/01/10 02:37:44;;;;;;;;;;;;;;;;;;5054471;28;19929;-60
2021/01/10 02:40:10;;;;;;;;;;;;;;;;;;5053904;28;20366;-60
2021/01/10 02:42:36;;;;;;;;;;;;;;;;;;5053967;28;19947;-59
2021/01/10 02:45:02;;;;;;;;;;;;;;;;;;5053982;28;19909;-59
2021/01/10 02:47:28;;;;;;;;;;;;;;;;;;5053941;28;19909;-58
2021/01/10 02:49:54;;;;;;;;;;;;;;;;;;5053766;28;20404;-60
2021/01/10 02:52:20;;;;;;;;;;;;;;;;;;5053952;28;19943;-60
2021/01/10 02:54:46;;;;;;;;;;;;;;;;;;5053914;28;19919;-60
2021/01/10 02:57:15;;;;;;;;;;;;;;;;;;5053712;28;20010;-60
2021/01/10 02:59:41;;;;;;;;;;;;;;;;;;5054125;28;19934;-60
2021/01/10 03:02:07;;;;;;;;;;;;;;;;;;5053553;28;19925;-60
2021/01/10 03:04:33;;;;;;;;;;;;;;;;;;5053734;28;19927;-60
2021/01/10 03:06:59;;;;;;;;;;;;;;;;;;5053640;28;20006;-60
2021/01/10 03:09:25;;;;;;;;;;;;;;;;;;5053680;28;20295;-60
2021/01/10 03:11:51;;;;;;;;;;;;;;;;;;5053802;28;19973;-60
2021/01/10 03:14:17;;;;;;;;;;;;;;;;;;5053541;28;20010;-60
2021/01/10 03:16:43;;;;;;;;;;;;;;;;;;5053407;28;19916;-58
2021/01/10 03:19:09;;;;;;;;;;;;;;;;;;5053617;28;19939;-60
2021/01/10 03:21:35;;;;;;;;;;;;;;;;;;5053787;28;19954;-60
2021/01/10 03:24:01;;;;;;;;;;;;;;;;;;5053468;28;20334;-58
2021/01/10 03:26:27;;;;;;;;;;;;;;;;;;5053293;28;19923;-61
2021/01/10 03:28:53;;;;;;;;;;;;;;;;;;5053492;28;19961;-60
2021/01/10 03:31:19;;;;;;;;;;;;;;;;;;5053421;28;20385;-61
2021/01/10 03:33:48;;;;;;;;;;;;;;;;;;5053419;28;20007;-61
2021/01/10 03:36:14;;;;;;;;;;;;;;;;;;5053312;28;19947;-59
2021/01/10 03:38:40;;;;;;;;;;;;;;;;;;5053290;28;19927;-60
2021/01/10 03:41:06;;;;;;;;;;;;;;;;;;5053408;28;20022;-59
2021/01/10 03:43:32;;;;;;;;;;;;;;;;;;5053277;28;20295;-60
2021/01/10 03:45:58;;;;;;;;;;;;;;;;;;5053380;28;19923;-60
2021/01/10 03:48:24;;;;;;;;;;;;;;;;;;5053197;28;19929;-59
2021/01/10 03:50:50;;;;;;;;;;;;;;;;;;5053475;28;19955;-60
2021/01/10 03:53:16;;;;;;;;;;;;;;;;;;5056326;28;19923;-60
2021/01/10 03:55:42;;;;;;;;;;;;;;;;;;5056984;28;20353;-59
2021/01/10 03:58:08;;;;;;;;;;;;;;;;;;5057099;28;19909;-59
2021/01/10 04:00:34;;;;;;;;;;;;;;;;;;5057060;28;19925;-59
2021/01/10 04:03:00;;;;;;;;;;;;;;;;;;5056933;28;19923;-60
2021/01/10 04:05:26;;;;;;;;;;;;;;;;;;5057027;28;19934;-60
2021/01/10 04:07:51;;;;;;;;;;;;;;;;;;5057055;28;20389;-59
2021/01/10 04:10:17;;;;;;;;;;;;;;;;;;5056931;28;19928;-58
2021/01/10 04:12:43;;;;;;;;;;;;;;;;;;5056785;28;19919;-60
2021/01/10 04:15:09;;;;;;;;;;;;;;;;;;5056698;28;19973;-59
2021/01/10 04:17:35;;;;;;;;;;;;;;;;;;5056631;28;20019;-60
2021/01/10 04:20:01;;;;;;;;;;;;;;;;;;5057046;28;19927;-59
2021/01/10 04:22:27;;;;;;;;;;;;;;;;;;5056972;28;19970;-60
2021/01/10 04:24:53;;;;;;;;;;;;;;;;;;5056964;28;19932;-58
2021/01/10 04:27:19;;;;;;;;;;;;;;;;;;5056382;28;20289;-60
2021/01/10 04:29:45;;;;;;;;;;;;;;;;;;5056294;28;20017;-60
2021/01/10 04:32:11;;;;;;;;;;;;;;;;;;5056572;28;20018;-60
2021/01/10 04:34:37;;;;;;;;;;;;;;;;;;5056430;28;19920;-60
2021/01/10 04:37:03;;;;;;;;;;;;;;;;;;5056691;28;19947;-59
2021/01/10 04:39:29;;;;;;;;;;;;;;;;;;5056274;28;20377;-60
2021/01/10 04:41:55;;;;;;;;;;;;;;;;;;5056581;28;19985;-59
2021/01/10 04:44:23;;;;;;;;;;;;;;;;;;5056270;28;19923;-56
2021/01/10 04:46:49;;;;;;;;;;;;;;;;;;5056229;28;19962;-60
2021/01/10 04:49:15;;;;;;;;;;;;;;;;;;5056405;28;19925;-60
2021/01/10 04:51:41;;;;;;;;;;;;;;;;;;5056180;28;19924;-56
2021/01/10 04:54:07;;;;;;;;;;;;;;;;;;5055968;28;19999;-59
2021/01/10 04:56:33;;;;;;;;;;;;;;;;;;5056206;28;19949;-60
2021/01/10 04:58:59;;;;;;;;;;;;;;;;;;5056006;28;20465;-60
2021/01/10 05:01:25;;;;;;;;;;;;;;;;;;5055926;28;20022;-60
2021/01/10 05:03:51;;;;;;;;;;;;;;;;;;5055681;28;19927;-60
2021/01/10 05:06:17;;;;;;;;;;;;;;;;;;5055855;28;20003;-59
2021/01/10 05:08:43;;;;;;;;;;;;;;;;;;5055622;28;19956;-59
2021/01/10 05:11:09;;;;;;;;;;;;;;;;;;5055736;28;20008;-60
2021/01/10 05:13:35;;;;;;;;;;;;;;;;;;5055957;28;19929;-60
2021/01/10 05:16:01;;;;;;;;;;;;;;;;;;5055576;28;20328;-59
2021/01/10 05:18:27;;;;;;;;;;;;;;;;;;5055794;28;20006;-60
2021/01/10 05:20:53;;;;;;;;;;;;;;;;;;5055821;28;19924;-60
2021/01/10 05:23:19;;;;;;;;;;;;;;;;;;5055302;28;19977;-59
2021/01/10 05:25:45;;;;;;;;;;;;;;;;;;5055475;28;19975;-60
2021/01/10 05:28:11;;;;;;;;;;;;;;;;;;5055419;28;19970;-59
2021/01/10 05:30:37;;;;;;;;;;;;;;;;;;5055385;28;20326;-58
2021/01/10 05:33:03;;;;;;;;;;;;;;;;;;5055648;28;19927;-60
2021/01/10 05:35:29;;;;;;;;;;;;;;;;;;5055056;28;20324;-59
2021/01/10 05:37:55;;;;;;;;;;;;;;;;;;5055325;28;19925;-59
2021/01/10 05:40:21;;;;;;;;;;;;;;;;;;5055349;28;19937;-60
2021/01/10 05:42:47;;;;;;;;;;;;;;;;;;5055283;28;19967;-60
2021/01/10 05:45:13;;;;;;;;;;;;;;;;;;5055142;28;20298;-60
2021/01/10 05:47:39;;;;;;;;;;;;;;;;;;5055340;28;19949;-60
2021/01/10 05:50:05;;;;;;;;;;;;;;;;;;5055132;28;20366;-59
2021/01/10 05:52:31;;;;;;;;;;;;;;;;;;5054943;28;19941;-58
2021/01/10 05:54:58;;;;;;;;;;;;;;;;;;5054837;28;19921;-60
2021/01/10 05:57:24;;;;;;;;;;;;;;;;;;5054869;28;20325;-60
2021/01/10 05:59:50;;;;;;;;;;;;;;;;;;5054969;28;20028;-60
2021/01/10 06:02:16;;;;;;;;;;;;;;;;;;5054822;28;20294;-60
2021/01/10 06:04:42;;;;;;;;;;;;;;;;;;5054768;28;19944;-59
2021/01/10 06:07:08;;;;;;;;;;;;;;;;;;5055005;28;19923;-60
2021/01/10 06:09:34;;;;;;;;;;;;;;;;;;5054835;28;20360;-58
2021/01/10 06:12:00;;;;;;;;;;;;;;;;;;5054586;28;20330;-60
2021/01/10 06:14:26;;;;;;;;;;;;;;;;;;5054154;28;19921;-59
2021/01/10 06:16:52;;;;;;;;;;;;;;;;;;5054676;28;19947;-52
2021/01/10 06:19:18;;;;;;;;;;;;;;;;;;5054481;28;20437;-58
2021/01/10 06:21:44;;;;;;;;;;;;;;;;;;5054426;28;19927;-60
2021/01/10 06:24:10;;;;;;;;;;;;;;;;;;5054223;28;19939;-58
2021/01/10 06:26:36;;;;;;;;;;;;;;;;;;5054589;28;19925;-60
2021/01/10 06:29:02;;;;;;;;;;;;;;;;;;5054264;28;20486;-56
2021/01/10 06:31:28;;;;;;;;;;;;;;;;;;5054124;28;19942;-60
2021/01/10 06:33:54;;;;;;;;;;;;;;;;;;5054142;28;19927;-59
2021/01/10 06:36:20;;;;;;;;;;;;;;;;;;5053976;28;19951;-59
2021/01/10 06:38:46;;;;;;;;;;;;;;;;;;5054129;28;19919;-58
2021/01/10 06:41:12;;;;;;;;;;;;;;;;;;5053994;28;20435;-57
2021/01/10 06:43:38;;;;;;;;;;;;;;;;;;5054073;28;19957;-60
2021/01/10 06:46:04;;;;;;;;;;;;;;;;;;5053936;28;19925;-60
2021/01/10 06:48:30;;;;;;;;;;;;;;;;;;5054123;28;19920;-58
2021/01/10 06:50:56;;;;;;;;;;;;;;;;;;5053806;28;19929;-60
2021/01/10 06:53:22;;;;;;;;;;;;;;;;;;5053853;28;19925;-58
2021/01/10 06:55:48;;;;;;;;;;;;;;;;;;5053669;28;19944;-59
2021/01/10 06:58:14;;;;;;;;;;;;;;;;;;5054189;28;19921;-59
2021/01/10 07:00:40;;;;;;;;;;;;;;;;;;5053850;28;20011;-60
2021/01/10 07:03:06;;;;;;;;;;;;;;;;;;5053840;28;19923;-58
2021/01/10 07:05:32;;;;;;;;;;;;;;;;;;5053605;28;19923;-54
2021/01/10 07:07:58;;;;;;;;;;;;;;;;;;5054028;28;19954;-60
2021/01/10 07:10:24;;;;;;;;;;;;;;;;;;5053433;28;19948;-56
2021/01/10 07:12:50;;;;;;;;;;;;;;;;;;5051244;28;19968;-57
2021/01/10 07:15:16;;;;;;;;;;;;;;;;;;5045067;28;19959;-60
2021/01/10 07:17:42;;;;;;;;;;;;;;;;;;5033554;28;20385;-58
2021/01/10 07:20:08;;;;;;;;;;;;;;;;;;5036189;28;20028;-57
2021/01/10 07:22:34;;;;;;;;;;;;;;;;;;5034370;28;19929;-60
2021/01/10 07:25:00;;;;;;;;;;;;;;;;;;5033641;28;19923;-60
2021/01/10 07:27:26;;;;;;;;;;;;;;;;;;5035413;28;20390;-60
2021/01/10 07:29:53;;;;;;;;;;;;;;;;;;5037636;28;19960;-60
2021/01/10 07:32:21;;;;;;;;;;;;;;;;;;5037693;28;20419;-60
2021/01/10 07:34:47;;;;;;;;;;;;;;;;;;5037878;28;20018;-60
2021/01/10 07:37:13;;;;;;;;;;;;;;;;;;5037707;28;20406;-60
2021/01/10 07:39:39;;;;;;;;;;;;;;;;;;5037590;28;20018;-60
2021/01/10 07:50:19;;;;;;;;;;;;;;;;;;5037832;28;19963;-59
2021/01/10 07:52:45;;;;;;;;;;;;;;;;;;5037319;28;19923;-59
2021/01/10 07:55:11;;;;;;;;;;;;;;;;;;5037262;28;19980;-59
2021/01/10 07:57:37;;;;;;;;;;;;;;;;;;5037165;28;19964;-60
2021/01/10 08:00:03;;;;;;;;;;;;;;;;;;5037237;28;19932;-60
2021/01/10 08:02:29;;;;;;;;;;;;;;;;;;5037145;28;19964;-59
2021/01/10 08:04:55;;;;;;;;;;;;;;;;;;5036688;28;19979;-60
2021/01/10 08:14:56;;;;;;;;;;;;;;;;;;5035775;28;20325;-60
2021/01/10 08:17:22;;;;;;;;;;;;;;;;;;5036559;28;19951;-59
2021/01/10 08:19:48;;;;;;;;;;;;;;;;;;5036980;28;19928;-60
2021/01/10 08:22:15;;;;;;;;;;;;;;;;;;5036702;28;19927;-59
2021/01/10 08:24:41;;;;;;;;;;;;;;;;;;5036715;28;20489;-60
2021/01/10 08:27:07;;;;;;;;;;;;;;;;;;5036856;28;19961;-60
2021/01/10 08:29:33;;;;;;;;;;;;;;;;;;5037041;28;20463;-60
2021/01/10 08:31:59;;;;;;;;;;;;;;;;;;5036629;28;20016;-60
2021/01/10 08:34:25;;;;;;;;;;;;;;;;;;5036625;28;19925;-60
2021/01/10 08:36:51;;;;;;;;;;;;;;;;;;5036510;28;19952;-61
2021/01/10 08:39:19;;;;;;;;;;;;;;;;;;5035954;28;19925;-60
2021/01/10 08:41:47;;;;;;;;;;;;;;;;;;5036470;28;19945;-60
2021/01/10 08:44:13;;;;;;;;;;;;;;;;;;5036542;28;19998;-60
2021/01/10 08:46:39;;;;;;;;;;;;;;;;;;5036438;28;20370;-60
2021/01/10 08:49:05;;;;;;;;;;;;;;;;;;5036175;28;19932;-60
2021/01/10 08:51:32;;;;;;;;;;;;;;;;;;5036234;28;20388;-60
2021/01/10 08:53:57;;;;;;;;;;;;;;;;;;5053955;28;19934;-60
2021/01/10 08:56:23;;;;;;;;;;;;;;;;;;5054637;28;19943;-60
2021/01/10 08:58:49;;;;;;;;;;;;;;;;;;5054884;28;19921;-60
2021/01/10 09:01:15;;;;;;;;;;;;;;;;;;5055692;28;19975;-60
2021/01/10 09:03:41;;;;;;;;;;;;;;;;;;5056034;28;20386;-61
2021/01/10 09:06:07;;;;;;;;;;;;;;;;;;5055879;28;20335;-60
2021/01/10 09:08:33;;;;;;;;;;;;;;;;;;5055624;28;19921;-60
2021/01/10 09:10:59;;;;;;;;;;;;;;;;;;5055793;28;20385;-61
2021/01/10 09:13:25;;;;;;;;;;;;;;;;;;5055779;28;20256;-60
2021/01/10 09:15:51;;;;;;;;;;;;;;;;;;5055653;28;19949;-60
2021/01/10 09:18:20;;;;;;;;;;;;;;;;;;5055741;28;19931;-60
2021/01/10 09:20:46;;;;;;;;;;;;;;;;;;5054496;28;19927;-61
2021/01/10 09:23:12;;;;;;;;;;;;;;;;;;5054384;28;19944;-60
2021/01/10 09:25:38;;;;;;;;;;;;;;;;;;5055439;28;19974;-60
2021/01/10 09:28:04;;;;;;;;;;;;;;;;;;5055370;28;20003;-55
2021/01/10 09:30:30;;;;;;;;;;;;;;;;;;5055325;28;19925;-61
2021/01/10 09:32:56;;;;;;;;;;;;;;;;;;5054087;28;20020;-58
2021/01/10 09:35:22;;;;;;;;;;;;;;;;;;5055045;28;19923;-61
2021/01/10 09:37:48;;;;;;;;;;;;;;;;;;5054736;28;20387;-58
2021/01/10 09:40:14;;;;;;;;;;;;;;;;;;5055309;28;20296;-56
2021/01/10 09:42:40;;;;;;;;;;;;;;;;;;5054034;28;19933;-60
2021/01/10 09:45:06;;;;;;;;;;;;;;;;;;5049358;28;19925;-59
2021/01/10 09:47:32;;;;;;;;;;;;;;;;;;5041230;28;20017;-60
2021/01/10 09:49:58;;;;;;;;;;;;;;;;;;5053602;28;20384;-59
2021/01/10 09:52:24;;;;;;;;;;;;;;;;;;5055051;28;19923;-60
2021/01/10 09:54:49;;;;;;;;;;;;;;;;;;5054855;28;19927;-60
2021/01/10 09:57:19;;;;;;;;;;;;;;;;;;5054879;28;19947;-60
2021/01/10 09:59:45;;;;;;;;;;;;;;;;;;5054072;28;19934;-60
2021/01/10 10:02:11;;;;;;;;;;;;;;;;;;5054867;28;20024;-60
2021/01/10 10:04:37;;;;;;;;;;;;;;;;;;5054624;28;19933;-60
2021/01/10 10:07:03;;;;;;;;;;;;;;;;;;5054779;28;19945;-60
2021/01/10 10:09:29;;;;;;;;;;;;;;;;;;5054862;28;19909;-60
2021/01/10 10:11:54;;;;;;;;;;;;;;;;;;5054891;28;20358;-60
2021/01/10 10:14:20;;;;;;;;;;;;;;;;;;5054636;28;19977;-60
2021/01/10 10:16:46;;;;;;;;;;;;;;;;;;5054498;28;19955;-60
2021/01/10 10:19:12;;;;;;;;;;;;;;;;;;5054385;28;19925;-60
2021/01/10 10:21:38;;;;;;;;;;;;;;;;;;5054661;28;19908;-60
2021/01/10 10:24:04;;;;;;;;;;;;;;;;;;5054491;28;19946;-59
2021/01/10 10:26:30;;;;;;;;;;;;;;;;;;5053517;28;20287;-61
2021/01/10 10:28:56;;;;;;;;;;;;;;;;;;5048166;28;19957;-60
2021/01/10 10:31:24;;;;;;;;;;;;;;;;;;5054138;28;19926;-60
2021/01/10 10:33:50;;;;;;;;;;;;;;;;;;5054264;28;19930;-60
2021/01/10 10:36:16;;;;;;;;;;;;;;;;;;5050692;28;19949;-59
2021/01/10 10:38:43;;;;;;;;;;;;;;;;;;5053062;28;20506;-60
2021/01/10 10:41:09;;;;;;;;;;;;;;;;;;5052078;28;20281;-60
2021/01/10 10:43:35;;;;;;;;;;;;;;;;;;5042366;28;19913;-59
2021/01/10 10:46:01;;;;;;;;;;;;;;;;;;5042384;28;19947;-60
2021/01/10 10:48:27;;;;;;;;;;;;;;;;;;5047952;28;19971;-60
2021/01/10 10:50:53;;;;;;;;;;;;;;;;;;5053943;28;19954;-60
2021/01/10 10:53:22;;;;;;;;;;;;;;;;;;5047328;28;19928;-60
2021/01/10 10:55:48;;;;;;;;;;;;;;;;;;5052132;28;19993;-60
2021/01/10 10:58:14;;;;;;;;;;;;;;;;;;5052764;28;19913;-60
2021/01/10 11:00:40;;;;;;;;;;;;;;;;;;5053590;28;19920;-60
2021/01/10 11:03:06;;;;;;;;;;;;;;;;;;5053889;28;20272;-60
2021/01/10 11:05:32;;;;;;;;;;;;;;;;;;5053785;28;19913;-60
2021/01/10 11:07:58;;;;;;;;;;;;;;;;;;5052048;28;20344;-60
2021/01/10 11:10:24;;;;;;;;;;;;;;;;;;5052587;28;19968;-60
2021/01/10 11:12:50;;;;;;;;;;;;;;;;;;5053871;28;20096;-60
2021/01/10 11:15:16;;;;;;;;;;;;;;;;;;5053354;28;19930;-60
2021/01/10 11:17:42;;;;;;;;;;;;;;;;;;5053454;28;19929;-60
2021/01/10 11:20:08;;;;;;;;;;;;;;;;;;5053195;28;19929;-60
2021/01/10 11:22:36;;;;;;;;;;;;;;;;;;5053259;28;20435;-58
2021/01/10 11:25:02;;;;;;;;;;;;;;;;;;5053638;28;19927;-60
2021/01/10 11:27:28;;;;;;;;;;;;;;;;;;5053203;28;19909;-60
2021/01/10 11:29:54;;;;;;;;;;;;;;;;;;5052173;28;19955;-60
2021/01/10 11:32:20;;;;;;;;;;;;;;;;;;5051422;28;19931;-61
2021/01/10 11:34:46;;;;;;;;;;;;;;;;;;5053458;28;19916;-60
2021/01/10 11:37:12;;;;;;;;;;;;;;;;;;5052874;28;20322;-60
2021/01/10 11:39:38;;;;;;;;;;;;;;;;;;5053276;28;19909;-60
2021/01/10 11:42:04;;;;;;;;;;;;;;;;;;5052491;28;20259;-60
2021/01/10 11:44:30;;;;;;;;;;;;;;;;;;5053415;28;20011;-60
2021/01/10 11:46:56;;;;;;;;;;;;;;;;;;5053301;28;19964;-59
2021/01/10 11:49:22;;;;;;;;;;;;;;;;;;5053220;28;19909;-61
2021/01/10 11:51:48;;;;;;;;;;;;;;;;;;5053050;28;20401;-60
2021/01/10 11:54:15;;;;;;;;;;;;;;;;;;5053383;28;19989;-60
2021/01/10 11:56:41;;;;;;;;;;;;;;;;;;5053009;28;20034;-59
2021/01/10 11:59:07;;;;;;;;;;;;;;;;;;5052640;28;20338;-60
2021/01/10 12:01:32;;;;;;;;;;;;;;;;;;5048263;28;19916;-58
2021/01/10 12:03:58;;;;;;;;;;;;;;;;;;5043505;28;19922;-59
2021/01/10 12:06:24;;;;;;;;;;;;;;;;;;5042181;28;19926;-58
2021/01/10 12:08:50;;;;;;;;;;;;;;;;;;5037588;28;20030;-58
2021/01/10 12:11:16;;;;;;;;;;;;;;;;;;5040248;28;19992;-59
2021/01/10 12:13:42;;;;;;;;;;;;;;;;;;5045124;28;20007;-59
2021/01/10 12:16:08;;;;;;;;;;;;;;;;;;5048019;28;20461;-60
2021/01/10 12:18:34;;;;;;;;;;;;;;;;;;5038674;28;19920;-57
2021/01/10 12:21:00;;;;;;;;;;;;;;;;;;5043273;28;19940;-57
2021/01/10 12:23:26;;;;;;;;;;;;;;;;;;5047521;28;19944;-57
2021/01/10 12:25:52;;;;;;;;;;;;;;;;;;5044379;28;19970;-58
2021/01/10 12:28:18;;;;;;;;;;;;;;;;;;5044530;28;19947;-56
2021/01/10 12:30:44;;;;;;;;;;;;;;;;;;5042575;28;19909;-58
2021/01/10 12:33:10;;;;;;;;;;;;;;;;;;5046393;28;19928;-57
2021/01/10 12:35:36;;;;;;;;;;;;;;;;;;5044465;28;20075;-58
2021/01/10 12:38:02;;;;;;;;;;;;;;;;;;5042973;28;19949;-58
2021/01/10 12:40:28;;;;;;;;;;;;;;;;;;5044834;28;20010;-58
2021/01/10 12:42:54;;;;;;;;;;;;;;;;;;5041404;28;19943;-56
2021/01/10 12:45:20;;;;;;;;;;;;;;;;;;5045126;28;19909;-58
2021/01/10 12:47:46;;;;;;;;;;;;;;;;;;5042676;28;20402;-58
2021/01/10 12:50:12;;;;;;;;;;;;;;;;;;5042889;28;19931;-58
2021/01/10 12:52:38;;;;;;;;;;;;;;;;;;5043475;28;20410;-57
2021/01/10 12:55:04;;;;;;;;;;;;;;;;;;5045156;28;20009;-57
2021/01/10 12:57:30;;;;;;;;;;;;;;;;;;5041881;28;19945;-58
2021/01/10 12:59:56;;;;;;;;;;;;;;;;;;5047831;28;19976;-56
2021/01/10 13:02:22;;;;;;;;;;;;;;;;;;5050662;28;19937;-57
2021/01/10 13:04:49;;;;;;;;;;;;;;;;;;5045001;28;19933;-57
2021/01/10 13:07:15;;;;;;;;;;;;;;;;;;5042943;28;19931;-58
2021/01/10 13:09:41;;;;;;;;;;;;;;;;;;5046648;28;19933;-56
2021/01/10 13:12:08;;;;;;;;;;;;;;;;;;5042677;28;19921;-58
2021/01/10 13:14:34;;;;;;;;;;;;;;;;;;5042405;28;19920;-58
2021/01/10 13:17:00;;;;;;;;;;;;;;;;;;5033097;28;20038;-59
2021/01/10 13:19:26;;;;;;;;;;;;;;;;;;5035995;28;20138;-59
2021/01/10 13:21:52;;;;;;;;;;;;;;;;;;5039972;28;20458;-58
2021/01/10 13:24:18;;;;;;;;;;;;;;;;;;5046961;28;19913;-58
2021/01/10 13:26:44;;;;;;;;;;;;;;;;;;5051418;28;19986;-59
2021/01/10 13:29:10;;;;;;;;;;;;;;;;;;5051284;28;19935;-59
2021/01/10 13:31:36;;;;;;;;;;;;;;;;;;5052398;28;19936;-59
2021/01/10 13:34:02;;;;;;;;;;;;;;;;;;5052544;28;19933;-59
2021/01/10 13:36:28;;;;;;;;;;;;;;;;;;5052647;28;19946;-59
2021/01/10 13:38:54;;;;;;;;;;;;;;;;;;5052097;28;19933;-59
2021/01/10 13:41:20;;;;;;;;;;;;;;;;;;5052277;28;19926;-59
2021/01/10 13:43:46;;;;;;;;;;;;;;;;;;5047247;28;20390;-59
2021/01/10 13:46:12;;;;;;;;;;;;;;;;;;5046587;28;19962;-59
2021/01/10 13:48:38;;;;;;;;;;;;;;;;;;5051292;28;20637;-56
2021/01/10 13:51:04;;;;;;;;;;;;;;;;;;5050194;28;19965;-59
2021/01/10 13:53:30;;;;;;;;;;;;;;;;;;5045601;28;19929;-59
2021/01/10 13:55:56;;;;;;;;;;;;;;;;;;5034976;28;19957;-56
2021/01/10 13:58:22;;;;;;;;;;;;;;;;;;5050129;28;19969;-58
2021/01/10 14:00:48;;;;;;;;;;;;;;;;;;5052642;28;20391;-59
2021/01/10 14:03:14;;;;;;;;;;;;;;;;;;5052801;28;19920;-59
2021/01/10 14:05:40;;;;;;;;;;;;;;;;;;5051805;28;19924;-59
2021/01/10 14:08:06;;;;;;;;;;;;;;;;;;5050041;28;19909;-59
2021/01/10 14:10:32;;;;;;;;;;;;;;;;;;5051749;28;19930;-58
2021/01/10 14:12:58;;;;;;;;;;;;;;;;;;5050472;28;19977;-60
2021/01/10 14:15:24;;;;;;;;;;;;;;;;;;5052824;28;19909;-59
2021/01/10 14:17:50;;;;;;;;;;;;;;;;;;5052487;28;20366;-59
2021/01/10 14:20:16;;;;;;;;;;;;;;;;;;5049700;28;19974;-58
2021/01/10 14:22:42;;;;;;;;;;;;;;;;;;5048079;28;19913;-59
2021/01/10 14:25:07;;;;;;;;;;;;;;;;;;5051027;28;20442;-58
2021/01/10 14:27:33;;;;;;;;;;;;;;;;;;5050710;28;19990;-60
2021/01/10 14:29:59;;;;;;;;;;;;;;;;;;5052340;28;19965;-59
2021/01/10 14:32:25;;;;;;;;;;;;;;;;;;5050218;28;19909;-59
2021/01/10 14:34:51;;;;;;;;;;;;;;;;;;5050516;28;19937;-59
2021/01/10 14:37:17;;;;;;;;;;;;;;;;;;5048752;28;19962;-59
2021/01/10 14:39:43;;;;;;;;;;;;;;;;;;5048731;28;20005;-59
2021/01/10 14:42:09;;;;;;;;;;;;;;;;;;5051147;28;19966;-59
2021/01/10 14:44:36;;;;;;;;;;;;;;;;;;5051555;28;19927;-57
2021/01/10 14:47:02;;;;;;;;;;;;;;;;;;5051731;28;19948;-56
2021/01/10 14:49:30;;;;;;;;;;;;;;;;;;5051351;28;19933;-59
2021/01/10 14:51:56;;;;;;;;;;;;;;;;;;5050512;28;19936;-58
2021/01/10 14:54:22;;;;;;;;;;;;;;;;;;5051101;28;19940;-57
2021/01/10 14:56:48;;;;;;;;;;;;;;;;;;5050148;28;19956;-59
2021/01/10 14:59:14;;;;;;;;;;;;;;;;;;5051761;28;19934;-59
2021/01/10 15:01:40;;;;;;;;;;;;;;;;;;5051253;28;20393;-58
2021/01/10 15:04:06;;;;;;;;;;;;;;;;;;5042508;28;20016;-58
2021/01/10 15:06:32;;;;;;;;;;;;;;;;;;5046896;28;19971;-59
2021/01/10 15:08:58;;;;;;;;;;;;;;;;;;5038672;28;19999;-59
2021/01/10 15:11:24;;;;;;;;;;;;;;;;;;5038795;28;20390;-59
2021/01/10 15:13:50;;;;;;;;;;;;;;;;;;5043043;28;19936;-59
2021/01/10 15:16:16;;;;;;;;;;;;;;;;;;5044645;28;19927;-59
2021/01/10 15:18:42;;;;;;;;;;;;;;;;;;5042548;28;19982;-59
2021/01/10 15:21:08;;;;;;;;;;;;;;;;;;5048691;28;20018;-57
2021/01/10 15:23:34;;;;;;;;;;;;;;;;;;5044010;28;19939;-59
2021/01/10 15:26:00;;;;;;;;;;;;;;;;;;5042308;28;19924;-58
2021/01/10 15:28:26;;;;;;;;;;;;;;;;;;5040160;28;19952;-59
2021/01/10 15:30:52;;;;;;;;;;;;;;;;;;5042986;28;19962;-58
2021/01/10 15:33:18;;;;;;;;;;;;;;;;;;5051067;28;19934;-58
2021/01/10 15:35:44;;;;;;;;;;;;;;;;;;5051129;28;19944;-58
2021/01/10 15:38:10;;;;;;;;;;;;;;;;;;5049572;28;19936;-59
2021/01/10 15:40:36;;;;;;;;;;;;;;;;;;5051091;28;19931;-59
2021/01/10 15:43:02;;;;;;;;;;;;;;;;;;5050427;28;20335;-58
2021/01/10 15:45:29;;;;;;;;;;;;;;;;;;5046227;28;19932;-56
2021/01/10 15:47:55;;;;;;;;;;;;;;;;;;5049560;28;20277;-58
2021/01/10 15:50:21;;;;;;;;;;;;;;;;;;5034774;28;19924;-59
2021/01/10 15:52:47;;;;;;;;;;;;;;;;;;5034970;28;19975;-58
2021/01/10 15:55:13;;;;;;;;;;;;;;;;;;5036046;28;19929;-58
2021/01/10 15:57:40;;;;;;;;;;;;;;;;;;5041051;28;19951;-58
2021/01/10 16:00:06;;;;;;;;;;;;;;;;;;5036333;28;19953;-58
2021/01/10 16:02:32;;;;;;;;;;;;;;;;;;5034866;28;19924;-58
2021/01/10 16:04:59;;;;;;;;;;;;;;;;;;5034419;28;19965;-58
2021/01/10 16:07:25;;;;;;;;;;;;;;;;;;5039529;28;19939;-59
2021/01/10 16:09:52;;;;;;;;;;;;;;;;;;5053753;28;20338;-59
2021/01/10 16:12:18;;;;;;;;;;;;;;;;;;5050713;28;19983;-59
2021/01/10 16:14:44;;;;;;;;;;;;;;;;;;5046198;28;19931;-59
2021/01/10 16:17:10;;;;;;;;;;;;;;;;;;5046714;28;20287;-58
2021/01/10 16:19:36;;;;;;;;;;;;;;;;;;5048053;28;19941;-59
2021/01/10 16:22:04;;;;;;;;;;;;;;;;;;5052908;28;20420;-58
2021/01/10 16:24:30;;;;;;;;;;;;;;;;;;5052812;28;19909;-59
2021/01/10 16:26:56;;;;;;;;;;;;;;;;;;5051404;28;19931;-59
2021/01/10 16:29:22;;;;;;;;;;;;;;;;;;5049981;28;19965;-59
2021/01/10 16:31:48;;;;;;;;;;;;;;;;;;5051426;28;20330;-57
2021/01/10 16:34:14;;;;;;;;;;;;;;;;;;5051633;28;20265;-59
2021/01/10 16:36:40;;;;;;;;;;;;;;;;;;5042093;28;19956;-59
2021/01/10 16:39:06;;;;;;;;;;;;;;;;;;5046210;28;20134;-59
2021/01/10 16:41:32;;;;;;;;;;;;;;;;;;5046608;28;20401;-59
2021/01/10 16:43:58;;;;;;;;;;;;;;;;;;5043176;28;19932;-59
2021/01/10 16:46:24;;;;;;;;;;;;;;;;;;5041647;28;19923;-59
2021/01/10 16:48:50;;;;;;;;;;;;;;;;;;5053545;28;20394;-58
2021/01/10 16:51:16;;;;;;;;;;;;;;;;;;5045037;28;19925;-59
2021/01/10 16:53:42;;;;;;;;;;;;;;;;;;5049808;28;20388;-58